sensor_id;sensor_type;location;lat;lon;timestamp;temperature;humidity
44729;DHT22;30457;53.590;9.922;2023-08-01T00:03:26;21.30;63.20
44729;DHT22;30457;53.590;9.922;2023-08-01T00:07:52;21.30;62.80
44729;DHT22;30457;53.590;9.922;2023-08-01T00:12:18;21.20;62.30
44729;DHT22;30457;53.590;9.922;2023-08-01T00:16:43;21.20;62.40
44729;DHT22;30457;53.590;9.922;2023-08-01T00:21:09;21.10;61.90
44729;DHT22;30457;53.590;9.922;2023-08-01T00:25:37;21.10;61.90
44729;DHT22;30457;53.590;9.922;2023-08-01T00:30:03;21.00;61.90
44729;DHT22;30457;53.590;9.922;2023-08-01T00:34:29;21.00;61.80
44729;DHT22;30457;53.590;9.922;2023-08-01T00:38:54;20.90;62.10
44729;DHT22;30457;53.590;9.922;2023-08-01T00:43:20;20.90;61.80
44729;DHT22;30457;53.590;9.922;2023-08-01T00:47:46;20.80;61.70
44729;DHT22;30457;53.590;9.922;2023-08-01T00:52:12;20.80;62.10
44729;DHT22;30457;53.590;9.922;2023-08-01T00:56:38;20.80;62.40
44729;DHT22;30457;53.590;9.922;2023-08-01T01:01:04;20.80;62.60
44729;DHT22;30457;53.590;9.922;2023-08-01T01:05:36;20.80;62.60
44729;DHT22;30457;53.590;9.922;2023-08-01T01:10:03;20.80;62.70
44729;DHT22;30457;53.590;9.922;2023-08-01T01:14:29;20.80;62.30
44729;DHT22;30457;53.590;9.922;2023-08-01T01:18:54;20.90;62.40
44729;DHT22;30457;53.590;9.922;2023-08-01T01:23:21;20.80;62.30
44729;DHT22;30457;53.590;9.922;2023-08-01T01:27:52;20.90;62.40
44729;DHT22;30457;53.590;9.922;2023-08-01T01:32:19;20.90;62.70
44729;DHT22;30457;53.590;9.922;2023-08-01T01:36:45;20.90;62.90
44729;DHT22;30457;53.590;9.922;2023-08-01T01:41:11;20.90;62.90
44729;DHT22;30457;53.590;9.922;2023-08-01T01:45:37;20.90;63.00
44729;DHT22;30457;53.590;9.922;2023-08-01T01:50:02;20.80;63.00
44729;DHT22;30457;53.590;9.922;2023-08-01T01:54:28;20.80;63.20
44729;DHT22;30457;53.590;9.922;2023-08-01T01:58:54;20.80;63.30
44729;DHT22;30457;53.590;9.922;2023-08-01T02:03:19;20.80;63.40
44729;DHT22;30457;53.590;9.922;2023-08-01T02:07:45;20.90;63.50
44729;DHT22;30457;53.590;9.922;2023-08-01T02:12:10;20.80;63.50
44729;DHT22;30457;53.590;9.922;2023-08-01T02:16:39;20.90;63.70
44729;DHT22;30457;53.590;9.922;2023-08-01T02:21:04;20.90;63.70
44729;DHT22;30457;53.590;9.922;2023-08-01T02:25:30;20.80;63.70
44729;DHT22;30457;53.590;9.922;2023-08-01T02:29:56;20.90;63.80
44729;DHT22;30457;53.590;9.922;2023-08-01T02:34:21;20.90;63.80
44729;DHT22;30457;53.590;9.922;2023-08-01T02:38:47;20.90;63.90
44729;DHT22;30457;53.590;9.922;2023-08-01T02:43:12;20.90;64.10
44729;DHT22;30457;53.590;9.922;2023-08-01T02:47:38;20.90;65.00
44729;DHT22;30457;53.590;9.922;2023-08-01T02:52:04;20.90;64.20
44729;DHT22;30457;53.590;9.922;2023-08-01T02:56:29;20.90;64.10
44729;DHT22;30457;53.590;9.922;2023-08-01T03:00:55;20.90;64.20
44729;DHT22;30457;53.590;9.922;2023-08-01T03:05:21;20.90;64.10
44729;DHT22;30457;53.590;9.922;2023-08-01T03:09:47;20.90;64.20
44729;DHT22;30457;53.590;9.922;2023-08-01T03:14:12;20.90;64.30
44729;DHT22;30457;53.590;9.922;2023-08-01T03:18:38;20.90;64.30
44729;DHT22;30457;53.590;9.922;2023-08-01T03:23:04;20.90;64.30
44729;DHT22;30457;53.590;9.922;2023-08-01T03:27:29;20.90;64.10
44729;DHT22;30457;53.590;9.922;2023-08-01T03:31:55;20.90;64.30
44729;DHT22;30457;53.590;9.922;2023-08-01T03:36:20;20.90;64.30
44729;DHT22;30457;53.590;9.922;2023-08-01T03:40:46;20.90;64.20
44729;DHT22;30457;53.590;9.922;2023-08-01T03:45:12;20.90;64.20
44729;DHT22;30457;53.590;9.922;2023-08-01T03:49:37;20.90;64.10
44729;DHT22;30457;53.590;9.922;2023-08-01T03:54:04;20.90;64.30
44729;DHT22;30457;53.590;9.922;2023-08-01T03:58:29;20.90;64.40
44729;DHT22;30457;53.590;9.922;2023-08-01T04:02:55;20.90;64.30
44729;DHT22;30457;53.590;9.922;2023-08-01T04:07:21;20.90;64.30
44729;DHT22;30457;53.590;9.922;2023-08-01T04:11:46;20.90;64.30
44729;DHT22;30457;53.590;9.922;2023-08-01T04:16:12;20.90;64.40
44729;DHT22;30457;53.590;9.922;2023-08-01T04:20:37;20.90;64.30
44729;DHT22;30457;53.590;9.922;2023-08-01T04:25:03;20.80;64.30
44729;DHT22;30457;53.590;9.922;2023-08-01T04:29:28;20.90;64.40
44729;DHT22;30457;53.590;9.922;2023-08-01T04:33:54;20.90;64.30
44729;DHT22;30457;53.590;9.922;2023-08-01T04:38:20;20.90;64.40
44729;DHT22;30457;53.590;9.922;2023-08-01T04:42:45;20.80;64.30
44729;DHT22;30457;53.590;9.922;2023-08-01T04:47:11;20.90;64.40
44729;DHT22;30457;53.590;9.922;2023-08-01T04:51:36;20.90;64.50
44729;DHT22;30457;53.590;9.922;2023-08-01T04:56:02;20.80;64.40
44729;DHT22;30457;53.590;9.922;2023-08-01T05:00:27;20.80;64.30
44729;DHT22;30457;53.590;9.922;2023-08-01T05:04:53;20.90;64.30
44729;DHT22;30457;53.590;9.922;2023-08-01T05:09:18;20.90;64.30
44729;DHT22;30457;53.590;9.922;2023-08-01T05:13:44;20.90;64.30
44729;DHT22;30457;53.590;9.922;2023-08-01T05:18:10;20.90;64.20
44729;DHT22;30457;53.590;9.922;2023-08-01T05:22:35;20.90;64.30
44729;DHT22;30457;53.590;9.922;2023-08-01T05:27:01;20.90;64.30
44729;DHT22;30457;53.590;9.922;2023-08-01T05:31:26;20.90;64.10
44729;DHT22;30457;53.590;9.922;2023-08-01T05:35:52;20.90;64.20
44729;DHT22;30457;53.590;9.922;2023-08-01T05:40:17;20.90;64.10
44729;DHT22;30457;53.590;9.922;2023-08-01T05:44:43;20.80;64.10
44729;DHT22;30457;53.590;9.922;2023-08-01T05:49:08;20.90;64.20
44729;DHT22;30457;53.590;9.922;2023-08-01T05:53:34;20.90;64.20
44729;DHT22;30457;53.590;9.922;2023-08-01T05:57:59;20.90;64.10
44729;DHT22;30457;53.590;9.922;2023-08-01T06:02:25;20.90;64.10
44729;DHT22;30457;53.590;9.922;2023-08-01T06:06:50;20.90;64.20
44729;DHT22;30457;53.590;9.922;2023-08-01T06:11:16;20.90;64.20
44729;DHT22;30457;53.590;9.922;2023-08-01T06:15:42;20.90;64.20
44729;DHT22;30457;53.590;9.922;2023-08-01T06:20:07;20.90;64.20
44729;DHT22;30457;53.590;9.922;2023-08-01T06:24:33;21.00;64.30
44729;DHT22;30457;53.590;9.922;2023-08-01T06:28:59;21.00;64.30
44729;DHT22;30457;53.590;9.922;2023-08-01T06:33:24;21.00;64.30
44729;DHT22;30457;53.590;9.922;2023-08-01T06:37:50;21.10;63.80
44729;DHT22;30457;53.590;9.922;2023-08-01T06:42:15;21.10;63.80
44729;DHT22;30457;53.590;9.922;2023-08-01T06:46:41;21.20;63.40
44729;DHT22;30457;53.590;9.922;2023-08-01T06:51:07;21.20;62.90
44729;DHT22;30457;53.590;9.922;2023-08-01T06:55:32;21.20;62.80
44729;DHT22;30457;53.590;9.922;2023-08-01T06:59:58;21.20;62.80
44729;DHT22;30457;53.590;9.922;2023-08-01T07:04:23;21.10;62.80
44729;DHT22;30457;53.590;9.922;2023-08-01T07:08:49;21.10;62.70
44729;DHT22;30457;53.590;9.922;2023-08-01T07:13:14;21.10;62.90
44729;DHT22;30457;53.590;9.922;2023-08-01T07:17:41;21.20;62.80
44729;DHT22;30457;53.590;9.922;2023-08-01T07:22:07;21.20;63.20
44729;DHT22;30457;53.590;9.922;2023-08-01T07:26:32;21.30;63.00
44729;DHT22;30457;53.590;9.922;2023-08-01T07:30:59;21.40;63.10
44729;DHT22;30457;53.590;9.922;2023-08-01T07:35:25;21.50;62.90
44729;DHT22;30457;53.590;9.922;2023-08-01T07:39:51;21.50;62.40
44729;DHT22;30457;53.590;9.922;2023-08-01T07:44:16;21.60;61.90
44729;DHT22;30457;53.590;9.922;2023-08-01T07:48:42;21.60;62.70
44729;DHT22;30457;53.590;9.922;2023-08-01T07:53:08;21.70;62.10
44729;DHT22;30457;53.590;9.922;2023-08-01T07:57:33;21.80;62.10
44729;DHT22;30457;53.590;9.922;2023-08-01T08:01:59;21.90;62.40
44729;DHT22;30457;53.590;9.922;2023-08-01T08:06:24;22.00;61.50
44729;DHT22;30457;53.590;9.922;2023-08-01T08:10:50;22.10;61.80
44729;DHT22;30457;53.590;9.922;2023-08-01T08:15:17;22.10;61.10
44729;DHT22;30457;53.590;9.922;2023-08-01T08:19:42;22.30;61.00
44729;DHT22;30457;53.590;9.922;2023-08-01T08:24:08;22.40;60.00
44729;DHT22;30457;53.590;9.922;2023-08-01T08:28:34;22.50;59.60
44729;DHT22;30457;53.590;9.922;2023-08-01T08:32:59;22.40;59.90
44729;DHT22;30457;53.590;9.922;2023-08-01T08:37:29;22.50;60.20
44729;DHT22;30457;53.590;9.922;2023-08-01T08:41:55;22.60;60.60
44729;DHT22;30457;53.590;9.922;2023-08-01T08:46:21;22.70;60.00
44729;DHT22;30457;53.590;9.922;2023-08-01T08:50:50;22.80;59.60
44729;DHT22;30457;53.590;9.922;2023-08-01T08:55:16;22.90;59.40
44729;DHT22;30457;53.590;9.922;2023-08-01T08:59:43;23.00;59.80
44729;DHT22;30457;53.590;9.922;2023-08-01T09:04:09;23.10;59.80
44729;DHT22;30457;53.590;9.922;2023-08-01T09:08:36;23.20;58.90
44729;DHT22;30457;53.590;9.922;2023-08-01T09:13:04;23.20;58.50
44729;DHT22;30457;53.590;9.922;2023-08-01T09:17:32;23.20;58.70
44729;DHT22;30457;53.590;9.922;2023-08-01T09:21:58;23.10;58.40
44729;DHT22;30457;53.590;9.922;2023-08-01T09:26:23;23.10;58.20
44729;DHT22;30457;53.590;9.922;2023-08-01T09:30:51;23.00;58.60
44729;DHT22;30457;53.590;9.922;2023-08-01T09:35:17;23.00;58.80
44729;DHT22;30457;53.590;9.922;2023-08-01T09:39:42;23.10;59.50
44729;DHT22;30457;53.590;9.922;2023-08-01T09:44:16;23.20;59.30
44729;DHT22;30457;53.590;9.922;2023-08-01T09:48:42;23.40;59.50
44729;DHT22;30457;53.590;9.922;2023-08-01T09:53:09;23.60;58.40
44729;DHT22;30457;53.590;9.922;2023-08-01T09:57:37;23.80;58.20
44729;DHT22;30457;53.590;9.922;2023-08-01T10:02:14;24.00;58.30
44729;DHT22;30457;53.590;9.922;2023-08-01T10:06:43;24.10;56.40
44729;DHT22;30457;53.590;9.922;2023-08-01T10:11:14;24.20;57.10
44729;DHT22;30457;53.590;9.922;2023-08-01T10:15:40;24.30;56.90
44729;DHT22;30457;53.590;9.922;2023-08-01T10:20:07;24.30;56.20
44729;DHT22;30457;53.590;9.922;2023-08-01T10:24:33;24.20;56.50
44729;DHT22;30457;53.590;9.922;2023-08-01T10:29:00;24.20;56.60
44729;DHT22;30457;53.590;9.922;2023-08-01T10:33:33;24.10;56.50
44729;DHT22;30457;53.590;9.922;2023-08-01T10:38:06;24.10;55.40
44729;DHT22;30457;53.590;9.922;2023-08-01T10:42:42;23.90;55.10
44729;DHT22;30457;53.590;9.922;2023-08-01T10:47:08;23.90;56.70
44729;DHT22;30457;53.590;9.922;2023-08-01T10:51:36;23.90;56.40
44729;DHT22;30457;53.590;9.922;2023-08-01T10:56:02;23.80;56.40
44729;DHT22;30457;53.590;9.922;2023-08-01T11:00:28;23.80;55.80
44729;DHT22;30457;53.590;9.922;2023-08-01T11:05:01;23.70;55.10
44729;DHT22;30457;53.590;9.922;2023-08-01T11:09:28;23.60;53.60
44729;DHT22;30457;53.590;9.922;2023-08-01T11:13:53;23.30;54.10
44729;DHT22;30457;53.590;9.922;2023-08-01T11:18:21;23.00;54.30
44729;DHT22;30457;53.590;9.922;2023-08-01T11:22:56;22.70;54.60
44729;DHT22;30457;53.590;9.922;2023-08-01T11:27:22;22.30;54.90
44729;DHT22;30457;53.590;9.922;2023-08-01T11:31:58;22.10;55.50
44729;DHT22;30457;53.590;9.922;2023-08-01T11:36:28;21.90;56.30
44729;DHT22;30457;53.590;9.922;2023-08-01T11:40:54;21.70;56.80
44729;DHT22;30457;53.590;9.922;2023-08-01T11:45:20;21.60;57.70
44729;DHT22;30457;53.590;9.922;2023-08-01T11:49:50;21.60;57.90
44729;DHT22;30457;53.590;9.922;2023-08-01T11:54:15;21.60;58.00
44729;DHT22;30457;53.590;9.922;2023-08-01T11:58:42;21.60;58.20
44729;DHT22;30457;53.590;9.922;2023-08-01T12:03:09;21.70;58.90
44729;DHT22;30457;53.590;9.922;2023-08-01T12:07:38;21.90;59.60
44729;DHT22;30457;53.590;9.922;2023-08-01T12:12:04;22.10;60.30
44729;DHT22;30457;53.590;9.922;2023-08-01T12:16:30;22.50;60.20
44729;DHT22;30457;53.590;9.922;2023-08-01T12:20:55;22.70;59.80
44729;DHT22;30457;53.590;9.922;2023-08-01T12:25:21;22.90;58.20
44729;DHT22;30457;53.590;9.922;2023-08-01T12:29:47;23.00;57.80
44729;DHT22;30457;53.590;9.922;2023-08-01T12:34:12;23.00;57.30
44729;DHT22;30457;53.590;9.922;2023-08-01T12:38:38;23.00;57.20
44729;DHT22;30457;53.590;9.922;2023-08-01T12:43:03;22.90;57.30
44729;DHT22;30457;53.590;9.922;2023-08-01T12:47:29;22.80;57.50
44729;DHT22;30457;53.590;9.922;2023-08-01T12:51:55;22.80;57.40
44729;DHT22;30457;53.590;9.922;2023-08-01T12:56:22;22.70;57.70
44729;DHT22;30457;53.590;9.922;2023-08-01T13:00:48;22.70;57.40
44729;DHT22;30457;53.590;9.922;2023-08-01T13:05:13;22.60;57.50
44729;DHT22;30457;53.590;9.922;2023-08-01T13:09:39;22.60;58.10
44729;DHT22;30457;53.590;9.922;2023-08-01T13:14:04;22.60;58.30
44729;DHT22;30457;53.590;9.922;2023-08-01T13:18:30;22.60;58.80
44729;DHT22;30457;53.590;9.922;2023-08-01T13:22:56;22.60;58.40
44729;DHT22;30457;53.590;9.922;2023-08-01T13:27:21;22.70;59.10
44729;DHT22;30457;53.590;9.922;2023-08-01T13:31:47;22.70;58.70
44729;DHT22;30457;53.590;9.922;2023-08-01T13:36:12;22.80;58.40
44729;DHT22;30457;53.590;9.922;2023-08-01T13:40:38;22.80;58.40
44729;DHT22;30457;53.590;9.922;2023-08-01T13:45:04;22.80;58.90
44729;DHT22;30457;53.590;9.922;2023-08-01T13:49:29;22.80;59.10
44729;DHT22;30457;53.590;9.922;2023-08-01T13:53:55;22.90;59.50
44729;DHT22;30457;53.590;9.922;2023-08-01T13:58:21;23.00;59.80
44729;DHT22;30457;53.590;9.922;2023-08-01T14:02:49;23.10;59.10
44729;DHT22;30457;53.590;9.922;2023-08-01T14:07:15;23.20;58.80
44729;DHT22;30457;53.590;9.922;2023-08-01T14:11:41;23.10;58.70
44729;DHT22;30457;53.590;9.922;2023-08-01T14:16:06;23.10;58.00
44729;DHT22;30457;53.590;9.922;2023-08-01T14:20:32;23.00;58.10
44729;DHT22;30457;53.590;9.922;2023-08-01T14:24:57;23.00;57.60
44729;DHT22;30457;53.590;9.922;2023-08-01T14:29:23;22.90;57.50
44729;DHT22;30457;53.590;9.922;2023-08-01T14:33:49;22.90;59.00
44729;DHT22;30457;53.590;9.922;2023-08-01T14:38:14;23.00;59.90
44729;DHT22;30457;53.590;9.922;2023-08-01T14:42:40;23.20;59.00
44729;DHT22;30457;53.590;9.922;2023-08-01T14:47:05;23.40;59.00
44729;DHT22;30457;53.590;9.922;2023-08-01T14:51:31;23.60;58.40
44729;DHT22;30457;53.590;9.922;2023-08-01T14:55:57;23.60;57.50
44729;DHT22;30457;53.590;9.922;2023-08-01T15:00:25;23.60;57.60
44729;DHT22;30457;53.590;9.922;2023-08-01T15:04:55;23.60;57.60
44729;DHT22;30457;53.590;9.922;2023-08-01T15:09:21;23.60;57.30
44729;DHT22;30457;53.590;9.922;2023-08-01T15:13:46;23.60;57.50
44729;DHT22;30457;53.590;9.922;2023-08-01T15:18:12;23.60;57.60
44729;DHT22;30457;53.590;9.922;2023-08-01T15:22:37;23.60;57.30
44729;DHT22;30457;53.590;9.922;2023-08-01T15:27:03;23.60;57.50
44729;DHT22;30457;53.590;9.922;2023-08-01T15:31:28;23.40;56.90
44729;DHT22;30457;53.590;9.922;2023-08-01T15:36:03;23.40;56.70
44729;DHT22;30457;53.590;9.922;2023-08-01T15:40:29;23.30;57.40
44729;DHT22;30457;53.590;9.922;2023-08-01T15:44:54;23.30;57.60
44729;DHT22;30457;53.590;9.922;2023-08-01T15:49:20;23.30;57.40
44729;DHT22;30457;53.590;9.922;2023-08-01T15:53:45;23.30;57.40
44729;DHT22;30457;53.590;9.922;2023-08-01T15:58:11;23.40;57.00
44729;DHT22;30457;53.590;9.922;2023-08-01T16:02:36;23.40;56.50
44729;DHT22;30457;53.590;9.922;2023-08-01T16:07:02;23.30;56.30
44729;DHT22;30457;53.590;9.922;2023-08-01T16:11:27;23.30;56.00
44729;DHT22;30457;53.590;9.922;2023-08-01T16:15:53;23.20;56.50
44729;DHT22;30457;53.590;9.922;2023-08-01T16:20:19;23.30;56.40
44729;DHT22;30457;53.590;9.922;2023-08-01T16:24:44;23.40;57.20
44729;DHT22;30457;53.590;9.922;2023-08-01T16:29:10;23.40;57.10
44729;DHT22;30457;53.590;9.922;2023-08-01T16:33:37;23.50;56.60
44729;DHT22;30457;53.590;9.922;2023-08-01T16:38:03;23.50;56.40
44729;DHT22;30457;53.590;9.922;2023-08-01T16:42:28;23.50;56.70
44729;DHT22;30457;53.590;9.922;2023-08-01T16:46:54;23.60;56.80
44729;DHT22;30457;53.590;9.922;2023-08-01T16:51:19;23.70;57.10
44729;DHT22;30457;53.590;9.922;2023-08-01T16:55:45;23.80;56.70
44729;DHT22;30457;53.590;9.922;2023-08-01T17:00:12;23.90;56.70
44729;DHT22;30457;53.590;9.922;2023-08-01T17:04:37;24.10;56.40
44729;DHT22;30457;53.590;9.922;2023-08-01T17:09:03;24.10;56.10
44729;DHT22;30457;53.590;9.922;2023-08-01T17:13:33;24.20;56.00
44729;DHT22;30457;53.590;9.922;2023-08-01T17:17:59;24.30;56.50
44729;DHT22;30457;53.590;9.922;2023-08-01T17:22:25;24.50;55.70
44729;DHT22;30457;53.590;9.922;2023-08-01T17:26:52;24.70;55.30
44729;DHT22;30457;53.590;9.922;2023-08-01T17:31:19;24.70;54.60
44729;DHT22;30457;53.590;9.922;2023-08-01T17:35:44;24.70;54.40
44729;DHT22;30457;53.590;9.922;2023-08-01T17:40:11;24.50;54.10
44729;DHT22;30457;53.590;9.922;2023-08-01T17:44:36;24.30;54.20
44729;DHT22;30457;53.590;9.922;2023-08-01T17:49:02;24.10;54.10
44729;DHT22;30457;53.590;9.922;2023-08-01T17:53:29;23.90;54.10
44729;DHT22;30457;53.590;9.922;2023-08-01T17:57:55;23.70;54.20
44729;DHT22;30457;53.590;9.922;2023-08-01T18:02:21;23.60;54.30
44729;DHT22;30457;53.590;9.922;2023-08-01T18:06:46;23.40;54.40
44729;DHT22;30457;53.590;9.922;2023-08-01T18:11:14;23.20;54.50
44729;DHT22;30457;53.590;9.922;2023-08-01T18:15:40;23.00;54.70
44729;DHT22;30457;53.590;9.922;2023-08-01T18:20:07;22.80;54.80
44729;DHT22;30457;53.590;9.922;2023-08-01T18:24:35;22.70;55.10
44729;DHT22;30457;53.590;9.922;2023-08-01T18:29:01;22.60;55.60
44729;DHT22;30457;53.590;9.922;2023-08-01T18:33:26;22.50;55.80
44729;DHT22;30457;53.590;9.922;2023-08-01T18:37:52;22.50;56.00
44729;DHT22;30457;53.590;9.922;2023-08-01T18:42:18;22.40;56.20
44729;DHT22;30457;53.590;9.922;2023-08-01T18:46:43;22.30;56.30
44729;DHT22;30457;53.590;9.922;2023-08-01T18:51:18;22.30;56.50
44729;DHT22;30457;53.590;9.922;2023-08-01T18:55:44;22.30;56.60
44729;DHT22;30457;53.590;9.922;2023-08-01T19:00:10;22.30;56.70
44729;DHT22;30457;53.590;9.922;2023-08-01T19:04:35;22.20;56.70
44729;DHT22;30457;53.590;9.922;2023-08-01T19:09:01;22.20;56.50
44729;DHT22;30457;53.590;9.922;2023-08-01T19:13:30;22.10;56.50
44729;DHT22;30457;53.590;9.922;2023-08-01T19:17:56;22.10;56.50
44729;DHT22;30457;53.590;9.922;2023-08-01T19:22:21;22.00;56.60
44729;DHT22;30457;53.590;9.922;2023-08-01T19:26:47;22.00;56.60
44729;DHT22;30457;53.590;9.922;2023-08-01T19:31:12;21.90;56.60
44729;DHT22;30457;53.590;9.922;2023-08-01T19:35:39;21.90;56.70
44729;DHT22;30457;53.590;9.922;2023-08-01T19:40:06;21.80;56.90
44729;DHT22;30457;53.590;9.922;2023-08-01T19:44:34;21.70;57.00
44729;DHT22;30457;53.590;9.922;2023-08-01T19:49:00;21.70;57.10
44729;DHT22;30457;53.590;9.922;2023-08-01T19:53:25;21.60;57.20
44729;DHT22;30457;53.590;9.922;2023-08-01T19:57:51;21.60;57.30
44729;DHT22;30457;53.590;9.922;2023-08-01T20:02:17;21.60;57.50
44729;DHT22;30457;53.590;9.922;2023-08-01T20:06:42;21.50;57.40
44729;DHT22;30457;53.590;9.922;2023-08-01T20:11:08;21.50;57.50
44729;DHT22;30457;53.590;9.922;2023-08-01T20:15:33;21.50;57.50
44729;DHT22;30457;53.590;9.922;2023-08-01T20:19:59;21.40;57.50
44729;DHT22;30457;53.590;9.922;2023-08-01T20:24:24;21.40;57.50
44729;DHT22;30457;53.590;9.922;2023-08-01T20:28:50;21.30;57.60
44729;DHT22;30457;53.590;9.922;2023-08-01T20:33:16;21.30;57.60
44729;DHT22;30457;53.590;9.922;2023-08-01T20:37:42;21.30;57.70
44729;DHT22;30457;53.590;9.922;2023-08-01T20:42:08;21.20;57.70
44729;DHT22;30457;53.590;9.922;2023-08-01T20:46:33;21.20;57.90
44729;DHT22;30457;53.590;9.922;2023-08-01T20:51:00;21.10;57.90
44729;DHT22;30457;53.590;9.922;2023-08-01T20:55:25;21.10;58.10
44729;DHT22;30457;53.590;9.922;2023-08-01T20:59:51;21.10;58.10
44729;DHT22;30457;53.590;9.922;2023-08-01T21:04:16;21.10;58.20
44729;DHT22;30457;53.590;9.922;2023-08-01T21:08:42;21.10;58.30
44729;DHT22;30457;53.590;9.922;2023-08-01T21:13:08;21.10;58.20
44729;DHT22;30457;53.590;9.922;2023-08-01T21:17:33;21.00;58.30
44729;DHT22;30457;53.590;9.922;2023-08-01T21:21:59;21.00;58.20
44729;DHT22;30457;53.590;9.922;2023-08-01T21:26:24;21.00;58.30
44729;DHT22;30457;53.590;9.922;2023-08-01T21:30:50;21.00;58.30
44729;DHT22;30457;53.590;9.922;2023-08-01T21:35:16;20.90;58.40
44729;DHT22;30457;53.590;9.922;2023-08-01T21:39:42;20.90;58.40
44729;DHT22;30457;53.590;9.922;2023-08-01T21:44:07;20.90;58.50
44729;DHT22;30457;53.590;9.922;2023-08-01T21:48:33;20.80;58.40
44729;DHT22;30457;53.590;9.922;2023-08-01T21:53:00;20.80;58.60
44729;DHT22;30457;53.590;9.922;2023-08-01T21:57:25;20.80;58.60
44729;DHT22;30457;53.590;9.922;2023-08-01T22:01:51;20.80;58.60
44729;DHT22;30457;53.590;9.922;2023-08-01T22:06:16;20.70;59.20
44729;DHT22;30457;53.590;9.922;2023-08-01T22:10:42;20.70;58.80
44729;DHT22;30457;53.590;9.922;2023-08-01T22:15:08;20.70;58.70
44729;DHT22;30457;53.590;9.922;2023-08-01T22:19:33;20.60;58.70
44729;DHT22;30457;53.590;9.922;2023-08-01T22:23:59;20.60;58.70
44729;DHT22;30457;53.590;9.922;2023-08-01T22:28:29;20.60;58.80
44729;DHT22;30457;53.590;9.922;2023-08-01T22:32:54;20.50;58.70
44729;DHT22;30457;53.590;9.922;2023-08-01T22:37:23;20.50;58.90
44729;DHT22;30457;53.590;9.922;2023-08-01T22:41:49;20.50;58.90
44729;DHT22;30457;53.590;9.922;2023-08-01T22:46:14;20.50;59.00
44729;DHT22;30457;53.590;9.922;2023-08-01T22:50:40;20.50;59.00
44729;DHT22;30457;53.590;9.922;2023-08-01T22:55:06;20.50;59.10
44729;DHT22;30457;53.590;9.922;2023-08-01T22:59:33;20.40;59.10
44729;DHT22;30457;53.590;9.922;2023-08-01T23:03:59;20.40;59.20
44729;DHT22;30457;53.590;9.922;2023-08-01T23:08:25;20.40;59.20
44729;DHT22;30457;53.590;9.922;2023-08-01T23:12:50;20.40;59.30
44729;DHT22;30457;53.590;9.922;2023-08-01T23:17:16;20.40;59.30
44729;DHT22;30457;53.590;9.922;2023-08-01T23:21:41;20.40;59.30
44729;DHT22;30457;53.590;9.922;2023-08-01T23:26:08;20.40;59.40
44729;DHT22;30457;53.590;9.922;2023-08-01T23:30:37;20.40;59.40
44729;DHT22;30457;53.590;9.922;2023-08-01T23:35:03;20.30;59.60
44729;DHT22;30457;53.590;9.922;2023-08-01T23:39:28;20.30;59.80
44729;DHT22;30457;53.590;9.922;2023-08-01T23:43:54;20.30;60.00
44729;DHT22;30457;53.590;9.922;2023-08-01T23:48:20;20.30;60.10
44729;DHT22;30457;53.590;9.922;2023-08-01T23:52:46;20.30;60.10
44729;DHT22;30457;53.590;9.922;2023-08-01T23:57:11;20.20;60.20
